YCFN weather

Clifton Airport
Queensland, Australia

Public forecast

Using degrees Celsius for public forecast. Weather courtesy of forecast.io.

METAR (pilot weather report)

Closest report is Oakey Airport, 31.6 nm (58.5 km) N. Retrieved 2019/05/19 13:00 UTC (51 minutes ago):

YBOK 191300Z AUTO 09007KT 9999 // NCD 12/10 Q1027

TAF (pilot weather forecast)

Closest forecast is RAAF Base Amberley, 49.1 nm (90.9 km) ENE. Retrieved 2019/05/19 12:00 UTC (2 hours ago):

TAF YAMB 191117Z 1912/2006 VRB04KT 9999 FEW030 FM191400 VRB03KT 9999 -DZ -SHRA SCT020 BKN030 FM192200 VRB04KT 9999 SCT030 FM200100 10008KT 9999 -SHRA SCT030 BKN050 PROB30 1918/1922 0500 FG